Terminal Aerodrome Forecast
Issued by NWS Wilmington, OH

Home | Current Version | Previous Version | Text Only | Print | Product List | Glossary On
Versions: 1 2 3 4 5 6 7 8 9 10 11 12 13 14 15 16 17 18 19 20 21 22 23 24 25
774
FTUS41 KILN 082340
TAFCVG
TAF
KCVG 082340Z 0900/1006 29010KT 5SM -SN SCT015 OVC035
      TEMPO 0900/0901 1SM -SN BKN015
     FM090300 28012KT 5SM -SN BKN015 OVC025
     FM091400 28012KT P6SM -SN OVC022
     FM092100 27011KT P6SM OVC025=

USA.gov is the U.S. government's official web portal to all federal, state and local government web resources and services.